Time;durP1;ratioP1;P1;durP2;ratioP2;P2;SDS_P1;SDS_P2;PMS_P1;PMS_P2;Temp;Humidity;BMP_temperature;BMP_pressure;BME280_temperature;BME280_humidity;BME280_pressure;Samples;Min_cycle;Max_cycle;Signal;HPM_P1;HPM_P2
2022/01/06 00:00:36;;;;;;;11.20;2.97;;;;;;;-0.51;100.00;95830.66;5013973;28;21040;-78
2022/01/06 00:03:02;;;;;;;6.97;2.77;;;;;;;-0.52;100.00;95834.19;5028877;28;20032;-77
2022/01/06 00:05:28;;;;;;;11.10;3.43;;;;;;;-0.55;100.00;95829.22;5001621;28;20484;-79
2022/01/06 00:07:54;;;;;;;11.03;3.07;;;;;;;-0.50;100.00;95834.09;5017816;28;20040;-79
2022/01/06 00:10:20;;;;;;;12.63;2.83;;;;;;;-0.49;100.00;95835.75;5030978;28;20442;-79
2022/01/06 00:13:05;;;;;;;10.07;2.50;;;;;;;-0.53;100.00;95827.38;5031601;28;20056;-79
2022/01/06 00:23:38;;;;;;;10.70;3.03;;;;;;;-0.44;100.00;95832.84;5029592;28;20044;-78
2022/01/06 00:26:23;;;;;;;11.23;3.07;;;;;;;-0.35;100.00;95835.63;5013377;28;20480;-78
2022/01/06 00:28:48;;;;;;;7.33;3.10;;;;;;;-0.41;100.00;95840.38;5035434;28;20570;-78
2022/01/06 00:31:14;;;;;;;12.57;3.47;;;;;;;-0.39;100.00;95841.13;5041766;28;20534;-78
2022/01/06 00:33:40;;;;;;;11.73;2.70;;;;;;;-0.44;100.00;95846.56;5029855;28;20033;-79
2022/01/06 00:36:05;;;;;;;10.00;4.27;;;;;;;-0.44;100.00;95844.00;5021098;28;20064;-78
2022/01/06 00:38:32;;;;;;;9.93;3.60;;;;;;;-0.44;100.00;95849.16;5029749;28;20484;-78
2022/01/06 00:40:58;;;;;;;13.63;5.30;;;;;;;-0.43;100.00;95850.00;5029652;28;20029;-78
2022/01/06 00:43:24;;;;;;;11.13;3.00;;;;;;;-0.41;100.00;95842.97;5031956;28;20448;-79
2022/01/06 00:45:50;;;;;;;10.47;3.23;;;;;;;-0.43;100.00;95840.50;5018924;28;20467;-78
2022/01/06 00:48:25;;;;;;;11.27;3.43;;;;;;;-0.46;100.00;95843.28;5014821;28;20059;-79
2022/01/06 00:51:15;;;;;;;11.47;3.40;;;;;;;-0.42;100.00;95852.47;5054978;28;20565;-78
2022/01/06 00:53:41;;;;;;;12.53;4.07;;;;;;;-0.44;100.00;95841.41;5044168;28;20449;-79
2022/01/06 00:56:07;;;;;;;13.83;2.97;;;;;;;-0.45;100.00;95844.94;5031850;28;20490;-79
2022/01/06 00:59:03;;;;;;;13.07;4.30;;;;;;;-0.43;100.00;95853.41;5038363;28;20095;-79
2022/01/06 01:01:30;;;;;;;13.63;4.53;;;;;;;-0.43;100.00;95850.00;5010678;28;20467;-79
2022/01/06 01:03:57;;;;;;;11.73;4.43;;;;;;;-0.43;100.00;95848.25;5060569;28;20463;-79
2022/01/06 01:06:23;;;;;;;10.47;2.80;;;;;;;-0.36;100.00;95857.25;5036009;28;20467;-79
2022/01/06 01:08:48;;;;;;;15.03;4.13;;;;;;;-0.50;100.00;95863.31;5022462;28;20468;-79
2022/01/06 01:11:33;;;;;;;18.53;6.13;;;;;;;-0.54;100.00;95859.28;5025052;28;20973;-79
2022/01/06 01:14:16;;;;;;;17.03;3.63;;;;;;;-0.52;100.00;95866.94;5058936;28;20441;-79
2022/01/06 01:17:00;;;;;;;14.70;5.57;;;;;;;-0.60;100.00;95872.59;5023117;28;20464;-78
2022/01/06 01:19:58;;;;;;;10.23;3.97;;;;;;;-0.58;100.00;95869.91;5045896;28;20466;-78
2022/01/06 01:22:24;;;;;;;16.67;4.93;;;;;;;-0.52;100.00;95875.50;5019176;28;20127;-78
2022/01/06 01:24:59;;;;;;;16.80;4.80;;;;;;;-0.53;100.00;95885.94;5044423;28;20486;-78
2022/01/06 01:27:42;;;;;;;20.23;5.10;;;;;;;-0.55;100.00;95877.47;5026364;28;20033;-78
2022/01/06 01:30:39;;;;;;;19.30;5.20;;;;;;;-0.52;100.00;95887.59;5037148;28;20976;-78
2022/01/06 01:33:16;;;;;;;14.00;4.20;;;;;;;-0.52;100.00;95887.59;5038183;28;20099;-78
2022/01/06 01:35:46;;;;;;;14.17;3.90;;;;;;;-0.53;100.00;95889.34;5038357;28;20551;-80
2022/01/06 01:38:31;;;;;;;12.70;3.80;;;;;;;-0.47;100.00;95895.84;5023051;28;20456;-79
2022/01/06 01:40:57;;;;;;;12.43;3.33;;;;;;;-0.42;100.00;95887.81;5032553;28;20044;-79
2022/01/06 01:44:11;;;;;;;11.30;3.90;;;;;;;-0.46;100.00;95894.94;5046514;28;20473;-79
2022/01/06 01:47:15;;;;;;;11.17;4.20;;;;;;;-0.44;100.00;95900.00;5027133;28;20041;-79
2022/01/06 01:49:55;;;;;;;;;;;;;;;-0.47;100.00;95901.03;5031752;28;20558;-79
2022/01/06 01:52:35;;;;;;;9.47;3.97;;;;;;;-0.45;100.00;95900.94;5020575;28;19939;-79
2022/01/06 01:55:16;;;;;;;11.63;4.30;;;;;;;-0.45;100.00;95904.34;5052113;28;20456;-79
2022/01/06 01:57:42;;;;;;;12.23;3.30;;;;;;;-0.50;100.00;95906.41;5002050;28;20496;-79
2022/01/06 02:00:13;;;;;;;13.07;3.83;;;;;;;-0.46;100.00;95909.63;5027893;28;20467;-80
2022/01/06 02:02:45;;;;;;;17.17;5.23;;;;;;;-0.44;100.00;95906.00;5015424;28;20459;-79
2022/01/06 02:05:13;;;;;;;15.77;3.80;;;;;;;-0.49;100.00;95908.06;5046539;28;21047;-79
2022/01/06 02:07:48;;;;;;;8.73;4.07;;;;;;;-0.46;100.00;95912.22;5037989;28;20471;-79
2022/01/06 02:10:14;;;;;;;12.50;5.73;;;;;;;-0.50;100.00;95915.00;4996587;28;20531;-79
2022/01/06 02:12:50;;;;;;;12.23;4.87;;;;;;;-0.45;100.00;95913.84;5027979;28;20522;-79
2022/01/06 02:15:17;;;;;;;14.10;4.43;;;;;;;-0.45;100.00;95919.84;5036716;28;20053;-79
2022/01/06 02:17:44;;;;;;;15.70;4.47;;;;;;;-0.44;100.00;95924.06;5038956;28;21023;-79
2022/01/06 02:20:12;;;;;;;12.87;5.00;;;;;;;-0.44;100.00;95925.84;5033251;28;21395;-79
2022/01/06 02:22:39;;;;;;;12.90;5.20;;;;;;;-0.46;100.00;95927.72;5025270;28;21075;-79
2022/01/06 02:25:29;;;;;;;7.90;3.60;;;;;;;-0.46;100.00;95933.69;5031428;28;21021;-79
2022/01/06 02:28:02;;;;;;;13.10;4.53;;;;;;;-0.41;100.00;95934.22;5013915;28;20511;-78
2022/01/06 02:30:32;;;;;;;13.93;6.00;;;;;;;-0.46;100.00;95943.22;5027714;28;20471;-79
2022/01/06 02:33:00;;;;;;;10.93;4.73;;;;;;;-0.41;100.00;95939.38;5025519;28;20496;-79
2022/01/06 02:35:27;;;;;;;10.50;4.50;;;;;;;-0.47;100.00;95939.78;5039920;28;20455;-79
2022/01/06 02:37:52;;;;;;;7.63;4.10;;;;;;;-0.46;100.00;95946.63;5035776;28;20482;-78
2022/01/06 02:40:24;;;;;;;10.27;4.80;;;;;;;-0.47;100.00;95937.19;5031252;28;20464;-78
2022/01/06 02:42:55;;;;;;;8.77;4.40;;;;;;;-0.45;100.00;95935.34;5010833;28;20106;-79
2022/01/06 02:45:25;;;;;;;9.80;5.37;;;;;;;-0.46;100.00;95925.94;5020939;28;20456;-79
2022/01/06 02:47:51;;;;;;;12.50;4.50;;;;;;;-0.46;100.00;95928.53;5023277;28;20472;-79
2022/01/06 02:50:17;;;;;;;9.93;5.20;;;;;;;-0.46;100.00;95930.28;5011610;28;20527;-79
2022/01/06 02:52:43;;;;;;;10.33;4.67;;;;;;;-0.48;100.00;95938.13;5012936;28;20574;-78
2022/01/06 02:55:12;;;;;;;9.23;4.57;;;;;;;-0.44;100.00;95938.75;5011574;28;20458;-79
2022/01/06 02:57:38;;;;;;;12.10;5.00;;;;;;;-0.45;100.00;95944.84;5012590;28;20603;-78
2022/01/06 03:00:12;;;;;;;11.40;5.17;;;;;;;-0.44;100.00;95944.75;5031267;28;20463;-79
2022/01/06 03:02:41;;;;;;;10.87;5.77;;;;;;;-0.42;100.00;95935.16;5035094;28;20869;-78
2022/01/06 03:05:07;;;;;;;10.90;4.50;;;;;;;-0.45;100.00;95934.53;5032397;28;20542;-78
2022/01/06 03:07:33;;;;;;;9.67;4.90;;;;;;;-0.41;100.00;95941.13;5025248;28;20448;-79
2022/01/06 03:10:02;;;;;;;9.97;4.93;;;;;;;-0.48;100.00;95938.13;5037884;28;21047;-79
2022/01/06 03:12:33;;;;;;;10.73;4.53;;;;;;;-0.46;100.00;95951.78;5025480;28;20526;-79
2022/01/06 03:15:00;;;;;;;12.33;4.83;;;;;;;-0.44;100.00;95949.91;4988965;28;20638;-78
2022/01/06 03:17:26;;;;;;;9.10;5.10;;;;;;;-0.43;100.00;95949.00;5000116;28;20501;-79
2022/01/06 03:19:51;;;;;;;13.40;5.60;;;;;;;-0.43;100.00;95955.94;5029475;28;20554;-78
2022/01/06 03:22:17;;;;;;;10.60;5.57;;;;;;;-0.43;100.00;95951.59;5017726;28;20032;-78
2022/01/06 03:24:43;;;;;;;10.70;5.50;;;;;;;-0.47;100.00;95952.69;5035505;28;20034;-78
2022/01/06 03:27:09;;;;;;;10.97;5.10;;;;;;;-0.47;100.00;95957.84;5020522;28;20037;-78
2022/01/06 03:29:35;;;;;;;12.27;5.77;;;;;;;-0.42;100.00;95962.75;5001337;28;20460;-79
2022/01/06 03:32:00;;;;;;;11.30;5.27;;;;;;;-0.44;100.00;95965.41;5012507;28;20054;-78
2022/01/06 03:34:30;;;;;;;13.67;6.00;;;;;;;-0.47;100.00;95968.19;5042990;28;20615;-79
2022/01/06 03:36:59;;;;;;;10.13;5.37;;;;;;;-0.50;100.00;95963.25;5048085;28;20420;-78
2022/01/06 03:39:25;;;;;;;12.77;6.47;;;;;;;-0.50;100.00;95968.41;5023325;28;20471;-78
2022/01/06 03:41:51;;;;;;;11.17;5.40;;;;;;;-0.48;100.00;95976.88;5045497;28;20913;-78
2022/01/06 03:44:18;;;;;;;13.13;5.70;;;;;;;-0.52;100.00;95975.41;5016885;28;20037;-78
2022/01/06 03:46:44;;;;;;;13.03;5.93;;;;;;;-0.60;100.00;95975.09;5024326;28;20061;-78
2022/01/06 03:49:10;;;;;;;11.13;5.80;;;;;;;-0.58;100.00;95986.13;5025317;28;20452;-78
2022/01/06 03:51:36;;;;;;;13.70;5.23;;;;;;;-0.53;100.00;95990.09;5008055;28;20456;-79
2022/01/06 03:54:02;;;;;;;11.67;6.07;;;;;;;-0.58;100.00;95980.97;5019687;28;20080;-79
2022/01/06 03:56:28;;;;;;;13.77;6.00;;;;;;;-0.57;100.00;95985.19;5024006;28;20453;-78
2022/01/06 03:58:53;;;;;;;12.33;5.83;;;;;;;-0.58;100.00;95980.97;5010048;28;20039;-79
2022/01/06 04:01:19;;;;;;;14.47;6.10;;;;;;;-0.60;100.00;95988.81;5031798;28;20033;-78
2022/01/06 04:03:47;;;;;;;11.50;5.97;;;;;;;-0.61;100.00;95997.47;5034468;28;20569;-79
2022/01/06 04:06:14;;;;;;;15.23;6.07;;;;;;;-0.60;100.00;95998.31;5025140;28;20041;-78
2022/01/06 04:08:41;;;;;;;14.43;6.17;;;;;;;-0.59;100.00;96005.97;5033890;28;20468;-78
2022/01/06 04:11:06;;;;;;;27.63;14.20;;;;;;;-0.56;100.00;96010.13;5024606;28;20521;-79
2022/01/06 04:13:33;;;;;;;21.63;11.10;;;;;;;-0.58;100.00;96006.78;5041217;28;20807;-79
2022/01/06 04:16:01;;;;;;;15.07;6.70;;;;;;;-0.58;100.00;96010.19;5036322;28;20035;-79
2022/01/06 04:18:28;;;;;;;11.30;6.07;;;;;;;-0.56;100.00;96012.69;5022422;28;20503;-79
2022/01/06 04:20:54;;;;;;;10.97;6.07;;;;;;;-0.52;100.00;96016.75;5028132;28;20472;-79
2022/01/06 04:23:19;;;;;;;11.93;5.90;;;;;;;-0.53;100.00;96010.75;5028416;28;20549;-79
2022/01/06 04:25:45;;;;;;;11.60;6.17;;;;;;;-0.49;100.00;96007.03;5033140;28;20040;-79
2022/01/06 04:28:11;;;;;;;12.83;5.90;;;;;;;-0.53;100.00;96015.09;5015625;28;20044;-79
2022/01/06 04:30:36;;;;;;;10.73;5.67;;;;;;;-0.56;100.00;96018.69;5038165;28;20452;-79
2022/01/06 04:33:03;;;;;;;12.93;6.00;;;;;;;-0.52;100.00;96025.31;5044733;28;20033;-79
2022/01/06 04:35:29;;;;;;;10.93;5.63;;;;;;;-0.43;100.00;96029.09;5037731;28;20072;-79
2022/01/06 04:37:55;;;;;;;14.50;6.23;;;;;;;-0.45;100.00;96030.09;5014395;28;20866;-79
2022/01/06 04:40:21;;;;;;;14.77;6.43;;;;;;;-0.46;100.00;96034.44;5022977;28;20049;-79
2022/01/06 04:42:46;;;;;;;11.77;6.83;;;;;;;-0.50;100.00;96038.16;5017941;28;20037;-79
2022/01/06 04:46:02;;;;;;;15.67;7.80;;;;;;;-0.46;100.00;96041.38;5039620;28;20128;-78
2022/01/06 04:48:29;;;;;;;11.53;6.03;;;;;;;-0.45;100.00;96040.44;5041692;28;20041;-79
2022/01/06 04:50:54;;;;;;;9.80;5.97;;;;;;;-0.43;100.00;96047.16;5026809;28;20906;-78
2022/01/06 04:53:20;;;;;;;11.80;5.97;;;;;;;-0.42;100.00;96046.22;5035585;28;20551;-79
2022/01/06 04:55:46;;;;;;;10.93;5.77;;;;;;;-0.43;100.00;96047.16;5035397;28;20017;-79
2022/01/06 04:58:12;;;;;;;11.70;6.03;;;;;;;-0.43;100.00;96057.50;5037672;28;20033;-79
2022/01/06 05:00:37;;;;;;;8.70;6.23;;;;;;;-0.42;100.00;96063.50;4996088;28;20435;-79
2022/01/06 05:03:06;;;;;;;8.80;5.27;;;;;;;-0.41;100.00;96071.13;5020211;28;20021;-78
2022/01/06 05:05:32;;;;;;;9.90;5.30;;;;;;;-0.42;100.00;96066.06;5036553;28;20036;-79
2022/01/06 05:08:02;;;;;;;11.80;5.53;;;;;;;-0.37;100.00;96067.47;5029664;28;20460;-79
2022/01/06 05:10:27;;;;;;;11.30;6.40;;;;;;;-0.44;100.00;96071.31;5018932;28;20048;-79
2022/01/06 05:12:53;;;;;;;9.77;6.13;;;;;;;-0.43;100.00;96070.41;5018320;28;20443;-79
2022/01/06 05:15:19;;;;;;;13.17;6.00;;;;;;;-0.44;100.00;96081.66;5031877;28;20029;-79
2022/01/06 05:17:46;;;;;;;11.00;5.70;;;;;;;-0.35;100.00;96069.94;5036431;28;20059;-79
2022/01/06 05:20:12;;;;;;;10.07;5.87;;;;;;;-0.40;100.00;96075.41;5008267;28;20057;-79
2022/01/06 05:22:44;;;;;;;13.47;6.10;;;;;;;-0.43;100.00;96078.16;5036699;28;20846;-79
2022/01/06 05:25:11;;;;;;;11.43;5.97;;;;;;;-0.46;100.00;96069.78;5019457;28;20041;-79
2022/01/06 05:27:37;;;;;;;11.67;5.97;;;;;;;-0.46;100.00;96075.78;5022488;28;20452;-79
2022/01/06 05:30:05;;;;;;;10.90;5.53;;;;;;;-0.43;100.00;96067.84;5011732;28;21123;-79
2022/01/06 05:32:31;;;;;;;10.97;5.07;;;;;;;-0.43;100.00;96067.00;5028586;28;20033;-79
2022/01/06 05:34:57;;;;;;;15.80;7.40;;;;;;;-0.45;100.00;96068.84;5035176;28;20474;-79
2022/01/06 05:37:22;;;;;;;16.70;6.97;;;;;;;-0.44;100.00;96066.16;5038097;28;20034;-79
2022/01/06 05:39:48;;;;;;;10.50;6.43;;;;;;;-0.45;100.00;96066.25;5016501;28;20044;-79
2022/01/06 05:42:14;;;;;;;16.77;6.93;;;;;;;-0.43;100.00;96082.50;5039291;28;20028;-79
2022/01/06 05:44:41;;;;;;;10.50;5.97;;;;;;;-0.47;100.00;96076.69;5016672;28;20029;-79
2022/01/06 05:47:19;;;;;;;13.80;7.10;;;;;;;-0.44;100.00;96075.66;5031683;28;20041;-79
2022/01/06 05:49:45;;;;;;;15.20;6.73;;;;;;;-0.41;100.00;96085.81;5002369;28;20978;-79
2022/01/06 05:52:11;;;;;;;17.07;6.80;;;;;;;-0.43;100.00;96082.50;5027570;28;20535;-79
2022/01/06 05:54:37;;;;;;;14.60;7.07;;;;;;;-0.44;100.00;96076.50;5012759;28;20070;-79
2022/01/06 05:57:03;;;;;;;18.40;7.10;;;;;;;-0.39;100.00;96084.78;5029696;28;20029;-80
2022/01/06 05:59:31;;;;;;;16.87;7.53;;;;;;;-0.41;100.00;96094.38;5027295;28;20444;-80
2022/01/06 06:01:58;;;;;;;13.00;7.70;;;;;;;-0.40;100.00;96083.16;5033018;28;20032;-80
2022/01/06 06:04:24;;;;;;;14.97;7.00;;;;;;;-0.38;100.00;96091.59;5010717;28;20460;-80
2022/01/06 06:06:50;;;;;;;17.40;7.50;;;;;;;-0.38;100.00;96094.19;5001861;28;20487;-80
2022/01/06 06:09:16;;;;;;;13.17;7.13;;;;;;;-0.40;100.00;96095.22;5032228;28;20065;-80
2022/01/06 06:11:41;;;;;;;16.47;7.57;;;;;;;-0.35;100.00;96100.94;5042914;28;20479;-80
2022/01/06 06:14:07;;;;;;;14.90;8.30;;;;;;;-0.38;100.00;96091.59;5016859;28;20522;-79
2022/01/06 06:16:33;;;;;;;11.87;7.23;;;;;;;-0.38;100.00;96095.94;5023750;28;20499;-79
2022/01/06 06:19:02;;;;;;;18.70;7.57;;;;;;;-0.37;100.00;96101.03;5034674;28;20116;-79
2022/01/06 06:21:29;;;;;;;12.27;7.53;;;;;;;-0.39;100.00;96099.47;5032998;28;20037;-79
2022/01/06 06:23:54;;;;;;;13.63;7.43;;;;;;;-0.38;100.00;96101.94;5037818;28;20560;-80
2022/01/06 06:26:20;;;;;;;17.50;7.73;;;;;;;-0.36;100.00;96104.44;5025316;28;20552;-80
2022/01/06 06:28:46;;;;;;;13.73;8.43;;;;;;;-0.35;100.00;96106.91;5033901;28;20033;-80
2022/01/06 06:31:12;;;;;;;14.43;7.50;;;;;;;-0.34;100.00;96113.75;5014849;28;20033;-80
2022/01/06 06:33:40;;;;;;;11.93;7.30;;;;;;;-0.30;100.00;96115.22;5015051;28;20570;-79
2022/01/06 06:36:06;;;;;;;19.77;9.43;;;;;;;-0.34;100.00;96121.50;5039478;28;20023;-80
2022/01/06 06:38:32;;;;;;;12.50;7.07;;;;;;;-0.31;100.00;96123.06;5017475;28;20459;-79
2022/01/06 06:40:58;;;;;;;18.43;7.27;;;;;;;-0.34;100.00;96120.66;5003974;28;20025;-80
2022/01/06 06:43:23;;;;;;;18.47;8.10;;;;;;;-0.31;100.00;96118.72;5024758;28;20451;-80
2022/01/06 06:45:49;;;;;;;14.60;7.30;;;;;;;-0.37;100.00;96134.63;5030504;28;20036;-79
2022/01/06 06:48:15;;;;;;;13.03;7.03;;;;;;;-0.35;100.00;96140.50;5039469;28;20098;-79
2022/01/06 06:50:41;;;;;;;18.47;8.00;;;;;;;-0.36;100.00;96136.28;5031397;28;20025;-79
2022/01/06 06:53:07;;;;;;;15.93;7.17;;;;;;;-0.35;100.00;96139.69;5040970;28;21031;-79
2022/01/06 06:55:34;;;;;;;14.43;7.77;;;;;;;-0.35;100.00;96150.84;5020274;28;20022;-79
2022/01/06 06:58:03;;;;;;;16.90;7.50;;;;;;;-0.32;100.00;96150.66;5022919;28;20502;-80
2022/01/06 07:00:28;;;;;;;15.23;7.80;;;;;;;-0.31;100.00;96160.06;5031692;28;20503;-81
2022/01/06 07:02:54;;;;;;;15.27;7.83;;;;;;;-0.29;100.00;96167.75;5024166;28;20456;-80
2022/01/06 07:05:20;;;;;;;17.90;8.03;;;;;;;-0.35;100.00;96165.53;5033772;28;20033;-80
2022/01/06 07:07:47;;;;;;;16.90;8.17;;;;;;;-0.27;100.00;96166.72;5045452;28;20141;-80
2022/01/06 07:10:14;;;;;;;12.57;7.33;;;;;;;-0.30;100.00;96161.75;5037127;28;20456;-81
2022/01/06 07:12:42;;;;;;;17.47;7.93;;;;;;;-0.31;100.00;96167.81;5032751;28;20495;-81
2022/01/06 07:15:10;;;;;;;16.90;7.83;;;;;;;-0.30;100.00;96169.50;5039204;28;20459;-80
2022/01/06 07:17:35;;;;;;;17.20;8.20;;;;;;;-0.33;100.00;96172.28;4998866;28;20534;-80
2022/01/06 07:20:02;;;;;;;16.90;8.80;;;;;;;-0.28;100.00;96175.38;5014452;28;21071;-80
2022/01/06 07:22:28;;;;;;;18.37;8.33;;;;;;;-0.27;100.00;96173.63;5016903;28;20071;-80
2022/01/06 07:24:53;;;;;;;21.80;9.30;;;;;;;-0.26;100.00;96177.88;5036629;28;20495;-80
2022/01/06 07:27:19;;;;;;;17.23;10.23;;;;;;;-0.21;100.00;96185.34;5022551;28;20033;-80
2022/01/06 07:29:45;;;;;;;16.87;8.90;;;;;;;-0.24;100.00;96197.53;5014492;28;20048;-80
2022/01/06 07:32:11;;;;;;;16.70;7.70;;;;;;;-0.28;100.00;96190.06;5014645;28;20090;-81
2022/01/06 07:34:36;;;;;;;21.03;9.60;;;;;;;-0.30;100.00;96192.75;5038749;28;20128;-80
2022/01/06 07:37:03;;;;;;;21.00;10.40;;;;;;;-0.29;100.00;96193.56;5020846;28;20073;-80
2022/01/06 07:39:29;;;;;;;22.93;11.20;;;;;;;-0.30;100.00;96194.50;5013805;28;20442;-80
2022/01/06 07:41:55;;;;;;;21.90;9.30;;;;;;;-0.34;100.00;96196.41;5032777;28;20456;-81
2022/01/06 07:44:22;;;;;;;16.10;9.13;;;;;;;-0.43;100.00;96209.94;5033183;28;21411;-82
2022/01/06 07:46:48;;;;;;;21.30;11.10;;;;;;;-0.43;100.00;96212.50;5026262;28;20897;-82
2022/01/06 07:49:15;;;;;;;17.60;9.00;;;;;;;-0.41;100.00;96205.47;5032274;28;20468;-81
2022/01/06 07:51:42;;;;;;;15.30;7.87;;;;;;;-0.38;100.00;96215.63;5012947;28;20037;-81
2022/01/06 07:54:08;;;;;;;26.83;14.23;;;;;;;-0.36;100.00;96221.53;5001157;28;20466;-81
2022/01/06 07:56:35;;;;;;;29.67;18.87;;;;;;;-0.38;100.00;96215.63;5042437;28;20820;-81
2022/01/06 07:59:00;;;;;;;34.10;19.83;;;;;;;-0.36;100.00;96223.31;5013986;28;20103;-80
2022/01/06 08:01:26;;;;;;;31.30;17.70;;;;;;;-0.25;100.00;96221.72;5030372;28;20476;-80
2022/01/06 08:03:52;;;;;;;21.07;11.57;;;;;;;-0.13;100.00;96222.72;5012894;28;20475;-80
2022/01/06 08:06:18;;;;;;;16.63;8.17;;;;;;;-0.16;100.00;96227.25;5036127;28;20056;-80
2022/01/06 08:08:45;;;;;;;16.30;5.33;;;;;;;-0.21;100.00;96226.69;5038727;28;20861;-80
2022/01/06 08:11:12;;;;;;;16.80;5.97;;;;;;;-0.23;100.00;96234.56;5009020;28;20571;-80
2022/01/06 08:13:38;;;;;;;16.23;5.70;;;;;;;-0.20;100.00;96243.84;5029379;28;20839;-81
2022/01/06 08:16:04;;;;;;;14.00;4.73;;;;;;;-0.19;100.00;96246.38;5019414;28;20511;-81
2022/01/06 08:18:30;;;;;;;15.67;4.60;;;;;;;-0.12;100.00;96244.25;5003249;28;20534;-80
2022/01/06 08:21:05;;;;;;;12.63;4.47;;;;;;;-0.12;100.00;96254.56;5010651;28;20499;-81
2022/01/06 08:23:30;;;;;;;21.40;5.70;;;;;;;-0.12;100.00;96252.00;5001430;28;20125;-81
2022/01/06 08:25:57;;;;;;;15.87;5.97;;;;;;;-0.10;100.00;96253.56;5036358;28;20514;-80
2022/01/06 08:28:22;;;;;;;15.40;6.20;;;;;;;-0.07;100.00;96260.28;5010932;28;20030;-80
2022/01/06 08:30:50;;;;;;;18.83;11.57;;;;;;;0.05;100.00;96263.88;5028231;28;21019;-81
2022/01/06 08:33:16;;;;;;;20.63;11.57;;;;;;;0.10;100.00;96262.69;5022474;28;20043;-80
2022/01/06 08:35:48;;;;;;;33.83;19.27;;;;;;;0.21;100.00;96270.59;4992355;28;20448;-81
2022/01/06 08:38:14;;;;;;;38.70;22.73;;;;;;;0.25;100.00;96270.41;5039546;28;20116;-80
2022/01/06 08:40:40;;;;;;;27.77;14.30;;;;;;;0.32;100.00;96271.69;5030346;28;20444;-80
2022/01/06 08:43:06;;;;;;;64.33;39.47;;;;;;;0.28;100.00;96273.63;5037840;28;20464;-79
2022/01/06 08:45:32;;;;;;;105.50;65.67;;;;;;;0.32;100.00;96274.28;5028641;28;20483;-80
2022/01/06 08:47:59;;;;;;;35.00;25.23;;;;;;;0.33;100.00;96281.09;5021037;28;20037;-79
2022/01/06 08:50:25;;;;;;;270.27;146.33;;;;;;;0.22;100.00;96287.78;5013931;28;20472;-80
2022/01/06 08:52:51;;;;;;;44.97;25.33;;;;;;;0.30;100.00;96286.47;5036008;28;20479;-79
2022/01/06 08:55:17;;;;;;;68.90;46.50;;;;;;;0.26;100.00;96282.41;5016867;28;20452;-79
2022/01/06 08:57:42;;;;;;;18.53;10.73;;;;;;;0.31;100.00;96290.72;5020929;28;20465;-79
2022/01/06 09:00:11;;;;;;;17.27;9.67;;;;;;;0.40;100.00;96282.38;4995407;28;20468;-80
2022/01/06 09:02:37;;;;;;;18.83;10.47;;;;;;;0.40;100.00;96287.56;5029460;28;20125;-80
2022/01/06 09:05:06;;;;;;;14.90;5.83;;;;;;;0.38;100.00;96292.00;5020351;28;20559;-80
2022/01/06 09:07:35;;;;;;;15.00;6.50;;;;;;;0.51;100.00;96292.09;5034828;28;21068;-80
2022/01/06 09:10:01;;;;;;;15.97;7.80;;;;;;;0.40;100.00;96284.97;5021747;28;20448;-80
2022/01/06 09:12:27;;;;;;;11.77;6.60;;;;;;;0.49;100.00;96289.56;5008849;28;20542;-80
2022/01/06 09:14:53;;;;;;;11.30;6.00;;;;;;;0.44;100.00;96296.81;5028950;28;20456;-80
2022/01/06 09:17:19;;;;;;;14.30;6.53;;;;;;;0.45;100.00;96298.47;5009764;28;21588;-80
2022/01/06 09:19:44;;;;;;;9.07;5.90;;;;;;;0.56;100.00;96303.78;5037373;28;20025;-80
2022/01/06 09:22:12;;;;;;;14.40;6.93;;;;;;;0.54;100.00;96297.03;5033409;28;20411;-80
2022/01/06 09:24:38;;;;;;;12.87;6.60;;;;;;;0.59;100.00;96307.94;5031194;28;20032;-80
2022/01/06 09:27:04;;;;;;;18.20;7.93;;;;;;;0.65;100.00;96310.16;5027323;28;20449;-80
2022/01/06 09:29:29;;;;;;;17.93;7.90;;;;;;;0.68;100.00;96305.59;5029200;28;20041;-80
2022/01/06 09:31:55;;;;;;;17.10;7.53;;;;;;;0.73;100.00;96301.88;5028895;28;20100;-79
2022/01/06 09:34:21;;;;;;;13.77;7.10;;;;;;;0.73;100.00;96312.25;5025082;28;20052;-80
2022/01/06 09:36:48;;;;;;;14.03;6.10;;;;;;;0.69;100.00;96312.44;5012517;28;20098;-80
2022/01/06 09:39:14;;;;;;;12.97;5.33;;;;;;;0.64;100.00;96317.09;5036175;28;20032;-80
2022/01/06 09:41:40;;;;;;;14.67;5.80;;;;;;;0.84;100.00;96322.75;5027501;28;20448;-80
2022/01/06 09:44:06;;;;;;;17.77;5.37;;;;;;;0.88;100.00;96322.47;5023135;28;20095;-80
2022/01/06 09:46:33;;;;;;;9.20;5.07;;;;;;;0.81;100.00;96325.56;4998203;28;20037;-80
2022/01/06 09:49:00;;;;;;;16.13;6.57;;;;;;;0.84;100.00;96323.59;5016467;28;20514;-80
2022/01/06 09:51:30;;;;;;;17.33;7.03;;;;;;;0.87;100.00;96328.59;5012342;28;20521;-80
2022/01/06 09:53:59;;;;;;;19.67;7.83;;;;;;;0.96;100.00;96336.69;5020235;28;20029;-80
2022/01/06 09:56:27;;;;;;;14.33;6.20;;;;;;;1.00;100.00;96330.38;5020811;28;20459;-80
2022/01/06 09:58:54;;;;;;;14.87;6.80;;;;;;;1.15;100.00;96324.22;5006759;28;20570;-78
2022/01/06 10:01:20;;;;;;;17.03;6.90;;;;;;;1.08;100.00;96330.72;5036344;28;20053;-78
2022/01/06 10:03:48;;;;;;;23.37;12.60;;;;;;;1.03;100.00;96328.41;5033713;28;20582;-78
2022/01/06 10:06:25;;;;;;;14.93;7.17;;;;;;;1.06;100.00;96323.03;5034814;28;20463;-78
2022/01/06 10:09:04;;;;;;;19.23;5.57;;;;;;;0.96;100.00;96329.75;5007571;28;20468;-77
2022/01/06 10:11:33;;;;;;;16.23;4.57;;;;;;;0.97;100.00;96341.75;5029382;28;20030;-78
2022/01/06 10:14:05;;;;;;;12.23;5.60;;;;;;;0.85;100.00;96337.38;5028785;28;20458;-78
2022/01/06 10:16:31;;;;;;;13.87;5.03;;;;;;;0.73;100.00;96333.78;5031008;28;20471;-78
2022/01/06 10:19:02;;;;;;;10.27;4.90;;;;;;;0.70;100.00;96337.41;5037384;28;20851;-78
2022/01/06 10:21:35;;;;;;;12.03;4.83;;;;;;;0.82;100.00;96334.97;5030365;28;20579;-78
2022/01/06 10:24:06;;;;;;;14.27;5.28;;;;;;;0.70;100.00;96340.00;5021406;28;20460;-79
2022/01/06 10:26:32;;;;;;;14.30;6.47;;;;;;;0.77;100.00;96339.59;4995659;28;20034;-79
2022/01/06 10:29:00;;;;;;;12.00;5.37;;;;;;;0.77;100.00;96335.28;5034544;28;20044;-78
2022/01/06 10:31:28;;;;;;;12.87;5.67;;;;;;;1.01;100.00;96332.88;5023176;28;20069;-78
2022/01/06 10:33:54;;;;;;;12.20;4.90;;;;;;;1.20;100.00;96327.31;5035062;28;20017;-78
2022/01/06 10:36:30;;;;;;;13.20;4.73;;;;;;;1.20;100.00;96327.31;5033725;28;20068;-77
2022/01/06 10:38:58;;;;;;;13.90;3.73;;;;;;;1.39;100.00;96330.38;5021646;28;20041;-78
2022/01/06 10:41:27;;;;;;;18.83;4.83;;;;;;;1.56;100.00;96333.63;5024502;28;20030;-80
2022/01/06 10:43:55;;;;;;;11.97;4.00;;;;;;;1.52;100.00;96329.59;5013441;28;20037;-81
2022/01/06 10:46:42;;;;;;;10.33;3.70;;;;;;;1.37;100.00;96334.81;5024475;28;20033;-81
2022/01/06 10:49:16;;;;;;;14.13;3.93;;;;;;;1.31;100.00;96340.44;5024573;28;20458;-80
2022/01/06 10:51:45;;;;;;;13.17;3.80;;;;;;;1.21;100.00;96339.38;5006886;28;20111;-80
2022/01/06 10:54:22;;;;;;;14.60;4.40;;;;;;;1.44;100.00;96339.59;4997485;28;20711;-80
2022/01/06 10:57:00;;;;;;;14.10;3.50;;;;;;;1.22;100.00;96340.19;5040222;28;20476;-80
2022/01/06 10:59:35;;;;;;;13.83;3.93;;;;;;;1.34;100.00;96349.75;5009564;28;20483;-79
2022/01/06 11:02:04;;;;;;;10.83;4.07;;;;;;;1.24;100.00;96343.50;5027965;28;20444;-79
2022/01/06 11:04:31;;;;;;;16.37;6.10;;;;;;;1.26;100.00;96346.84;5011025;28;20476;-80
2022/01/06 11:06:57;;;;;;;12.93;5.37;;;;;;;1.53;100.00;96339.84;5014178;28;20033;-78
2022/01/06 11:09:23;;;;;;;11.60;3.37;;;;;;;1.29;100.00;96344.03;5014077;28;20988;-78
2022/01/06 11:14:24;;;;;;;12.60;5.10;;;;;;;1.87;100.00;96351.38;5005582;28;20026;-79
2022/01/06 11:16:50;;;;;;;14.30;5.50;;;;;;;1.83;100.00;96351.69;5018728;28;20628;-78
2022/01/06 11:19:16;;;;;;;15.03;5.10;;;;;;;1.82;100.00;96358.66;5028862;28;20621;-78
2022/01/06 11:21:47;;;;;;;16.97;6.87;;;;;;;2.36;100.00;96360.19;5030124;28;20522;-80
2022/01/06 11:24:24;;;;;;;16.03;5.30;;;;;;;1.88;100.00;96360.84;5030930;28;20033;-79
2022/01/06 11:27:04;;;;;;;11.77;5.37;;;;;;;1.95;100.00;96358.66;5036668;28;20038;-79
2022/01/06 11:29:40;;;;;;;15.67;4.50;;;;;;;1.61;100.00;96366.09;5037653;28;20088;-79
2022/01/06 11:32:26;;;;;;;13.73;4.67;;;;;;;1.21;100.00;96367.00;5030597;28;20086;-79
2022/01/06 11:35:09;;;;;;;13.40;3.57;;;;;;;1.08;100.00;96377.34;5033925;28;20048;-79
2022/01/06 11:37:43;;;;;;;13.20;3.85;;;;;;;0.87;100.00;96379.50;5014387;28;20726;-79